Time;durP1;ratioP1;P1;durP2;ratioP2;P2;SDS_P1;SDS_P2;PMS_P1;PMS_P2;Temp;Humidity;BMP_temperature;BMP_pressure;BME280_temperature;BME280_humidity;BME280_pressure;Samples;Min_cycle;Max_cycle;Signal;HPM_P1;HPM_P2
2022/07/29 00:01:42;;;;;;;4.13;2.58;;;21.20;73.10;;;;;;5052348;28;20037;-62
2022/07/29 00:04:08;;;;;;;4.10;3.15;;;21.30;73.30;;;;;;5054868;28;20040;-62
2022/07/29 00:06:34;;;;;;;3.90;2.95;;;21.30;73.30;;;;;;5051311;28;20040;-63
2022/07/29 00:08:59;;;;;;;4.55;3.08;;;21.30;73.50;;;;;;5053263;28;20509;-62
2022/07/29 00:11:25;;;;;;;4.85;2.97;;;21.30;73.60;;;;;;5049938;28;20040;-62
2022/07/29 00:13:50;;;;;;;8.55;3.50;;;21.30;73.60;;;;;;5053328;28;20385;-63
2022/07/29 00:16:16;;;;;;;7.00;3.17;;;21.30;73.70;;;;;;5051188;28;20035;-64
2022/07/29 00:18:42;;;;;;;5.93;3.33;;;21.30;73.70;;;;;;5052837;28;20470;-63
2022/07/29 00:21:07;;;;;;;4.25;3.53;;;21.30;73.70;;;;;;5053904;28;20408;-62
2022/07/29 00:23:33;;;;;;;3.67;3.38;;;21.40;74.10;;;;;;5052291;28;20086;-61
2022/07/29 00:25:58;;;;;;;3.88;3.28;;;21.40;74.30;;;;;;5051440;28;20067;-63
2022/07/29 00:28:24;;;;;;;3.60;3.30;;;21.40;74.50;;;;;;5051938;28;20042;-66
2022/07/29 00:30:49;;;;;;;4.93;3.10;;;21.40;75.30;;;;;;5051622;28;20040;-63
2022/07/29 00:33:15;;;;;;;3.40;3.10;;;21.40;74.40;;;;;;5054272;28;20029;-63
2022/07/29 00:35:44;;;;;;;3.78;3.40;;;21.40;74.10;;;;;;5054263;28;20044;-64
2022/07/29 00:38:14;;;;;;;3.67;3.38;;;21.40;74.20;;;;;;5052910;28;20416;-63
2022/07/29 00:40:40;;;;;;;2.85;2.65;;;21.40;74.20;;;;;;5053015;28;20060;-63
2022/07/29 00:43:06;;;;;;;6.50;3.47;;;21.40;74.10;;;;;;5053644;28;20033;-63
2022/07/29 00:45:32;;;;;;;3.97;3.63;;;21.40;74.20;;;;;;5053097;28;20036;-62
2022/07/29 00:47:58;;;;;;;3.85;3.55;;;21.40;74.60;;;;;;5051643;28;20033;-67
2022/07/29 00:50:23;;;;;;;5.25;3.47;;;21.40;74.50;;;;;;5052004;28;20033;-62
2022/07/29 00:52:51;;;;;;;3.65;3.35;;;21.40;74.10;;;;;;5052217;28;20047;-62
2022/07/29 00:55:17;;;;;;;3.47;3.17;;;21.40;74.00;;;;;;5053847;28;20032;-60
2022/07/29 00:57:44;;;;;;;3.70;3.22;;;21.40;74.00;;;;;;5053702;28;20036;-62
2022/07/29 01:00:13;;;;;;;3.58;3.15;;;21.40;74.00;;;;;;5053355;28;20033;-63
2022/07/29 01:02:39;;;;;;;5.65;3.13;;;21.40;74.00;;;;;;5056699;28;20463;-61
2022/07/29 01:05:06;;;;;;;3.75;3.45;;;21.30;73.80;;;;;;5053848;28;20126;-65
2022/07/29 01:07:35;;;;;;;3.40;3.10;;;21.30;73.70;;;;;;5052892;28;20041;-62
2022/07/29 01:10:04;;;;;;;4.60;3.08;;;21.30;73.90;;;;;;5052491;28;20052;-61
2022/07/29 01:12:34;;;;;;;3.38;3.08;;;21.30;74.00;;;;;;5052260;28;20033;-64
2022/07/29 01:15:03;;;;;;;3.47;3.20;;;21.30;74.10;;;;;;5052982;28;20405;-64
2022/07/29 01:17:38;;;;;;;3.80;3.45;;;21.30;73.90;;;;;;5051053;28;20081;-63
2022/07/29 01:20:32;;;;;;;3.60;3.10;;;21.30;74.00;;;;;;5054636;28;20032;-61
2022/07/29 01:23:19;;;;;;;3.97;3.58;;;21.30;74.40;;;;;;5052201;28;20056;-62
2022/07/29 01:26:03;;;;;;;3.47;3.17;;;21.30;73.70;;;;;;5052236;28;20610;-63
2022/07/29 01:28:49;;;;;;;3.33;3.03;;;21.20;73.50;;;;;;5051636;28;20040;-63
2022/07/29 01:31:24;;;;;;;4.00;2.83;;;21.20;73.20;;;;;;5049611;28;20477;-63
2022/07/29 01:33:57;;;;;;;3.55;3.17;;;21.20;73.50;;;;;;5051679;28;20044;-62
2022/07/29 01:36:29;;;;;;;4.82;3.55;;;21.10;73.30;;;;;;5053070;28;20500;-62
2022/07/29 01:39:04;;;;;;;4.28;3.85;;;21.10;73.50;;;;;;5052892;28;20041;-62
2022/07/29 01:41:33;;;;;;;4.13;3.67;;;21.00;74.10;;;;;;5051447;28;20052;-63
2022/07/29 01:44:07;;;;;;;4.25;3.92;;;21.00;73.90;;;;;;5051413;28;20041;-63
2022/07/29 01:46:38;;;;;;;4.70;4.30;;;21.00;74.20;;;;;;5052282;28;20040;-62
2022/07/29 01:49:16;;;;;;;4.53;4.10;;;21.00;74.70;;;;;;5051317;28;20592;-62
2022/07/29 01:52:00;;;;;;;5.13;4.22;;;20.90;75.10;;;;;;5052992;28;20036;-63
2022/07/29 01:54:43;;;;;;;5.45;3.63;;;20.90;74.20;;;;;;5050580;28;20028;-62
2022/07/29 01:57:13;;;;;;;5.07;4.30;;;20.80;75.30;;;;;;5049386;28;20048;-64
2022/07/29 01:59:40;;;;;;;5.95;4.15;;;20.80;74.50;;;;;;5051397;28;20020;-62
2022/07/29 02:02:08;;;;;;;4.50;4.05;;;20.70;74.20;;;;;;5051319;28;20036;-62
2022/07/29 02:04:36;;;;;;;6.03;4.03;;;20.60;74.40;;;;;;5050257;28;20040;-60
2022/07/29 02:07:05;;;;;;;4.32;3.92;;;20.60;74.60;;;;;;5055301;28;20147;-63
2022/07/29 02:09:34;;;;;;;3.95;3.65;;;20.50;74.70;;;;;;5059679;28;20043;-62
2022/07/29 02:12:02;;;;;;;3.90;3.60;;;20.40;74.90;;;;;;5057830;28;20072;-63
2022/07/29 02:14:32;;;;;;;3.83;3.45;;;20.40;74.90;;;;;;5058938;28;20408;-62
2022/07/29 02:17:00;;;;;;;3.75;3.25;;;20.30;74.90;;;;;;5057833;28;20111;-62
2022/07/29 02:19:27;;;;;;;3.78;3.47;;;20.30;74.80;;;;;;5059524;28;20484;-62
2022/07/29 02:21:56;;;;;;;3.40;2.90;;;20.30;75.10;;;;;;5057633;28;20050;-64
2022/07/29 02:24:24;;;;;;;3.67;3.38;;;20.20;75.30;;;;;;5060131;28;20416;-64
2022/07/29 02:26:51;;;;;;;4.03;3.55;;;20.20;75.70;;;;;;5057552;28;20491;-63
2022/07/29 02:29:19;;;;;;;3.53;3.30;;;20.30;75.60;;;;;;5058658;28;20029;-61
2022/07/29 02:31:47;;;;;;;3.70;3.17;;;20.30;75.60;;;;;;5058884;28;20041;-61
2022/07/29 02:34:14;;;;;;;3.78;3.50;;;20.30;75.60;;;;;;5058907;28;20039;-63
2022/07/29 02:36:41;;;;;;;5.00;3.55;;;20.30;75.50;;;;;;5056971;28;20037;-64
2022/07/29 02:39:08;;;;;;;3.92;3.63;;;20.30;75.30;;;;;;5054364;28;20538;-62
2022/07/29 02:41:42;;;;;;;3.08;2.83;;;20.40;75.10;;;;;;5053419;28;20411;-62
2022/07/29 02:44:14;;;;;;;3.45;3.13;;;20.30;75.10;;;;;;5053059;28;20568;-60
2022/07/29 02:46:52;;;;;;;3.25;2.97;;;20.30;75.30;;;;;;5053283;28;20071;-60
2022/07/29 02:49:38;;;;;;;3.08;2.75;;;20.30;75.40;;;;;;5052394;28;20582;-60
2022/07/29 02:52:18;;;;;;;3.25;3.03;;;20.30;75.50;;;;;;5055562;28;20585;-61
2022/07/29 02:55:08;;;;;;;3.05;2.72;;;20.20;74.90;;;;;;5055761;28;20032;-60
2022/07/29 02:57:40;;;;;;;3.17;2.42;;;20.30;75.20;;;;;;5058603;28;20268;-63
2022/07/29 03:00:08;;;;;;;2.95;2.70;;;20.20;74.60;;;;;;5055805;28;20412;-62
2022/07/29 03:02:37;;;;;;;2.45;2.25;;;20.20;74.80;;;;;;5055064;28;20063;-62
2022/07/29 03:05:06;;;;;;;3.20;2.60;;;20.10;74.90;;;;;;5055522;28;20444;-64
2022/07/29 03:07:33;;;;;;;4.50;2.53;;;20.10;75.00;;;;;;5053715;28;21378;-60
2022/07/29 03:09:59;;;;;;;2.55;2.30;;;20.10;75.10;;;;;;5054764;28;20116;-63
2022/07/29 03:12:26;;;;;;;3.65;2.50;;;20.10;75.10;;;;;;5052373;28;20124;-63
2022/07/29 03:14:52;;;;;;;3.03;2.08;;;20.10;75.30;;;;;;5056369;28;20044;-64
2022/07/29 03:17:19;;;;;;;3.17;2.15;;;20.10;75.10;;;;;;5053092;28;20120;-60
2022/07/29 03:19:45;;;;;;;2.20;2.10;;;20.10;74.90;;;;;;5054297;28;20056;-64
2022/07/29 03:22:11;;;;;;;2.17;2.05;;;20.10;74.90;;;;;;5054575;28;20041;-62
2022/07/29 03:24:38;;;;;;;2.10;1.90;;;20.10;74.70;;;;;;5055787;28;20037;-62
2022/07/29 03:27:05;;;;;;;2.10;2.00;;;20.10;74.40;;;;;;5052894;28;20041;-61
2022/07/29 03:29:30;;;;;;;1.98;1.88;;;20.00;74.20;;;;;;5056153;28;20040;-62
2022/07/29 03:31:56;;;;;;;4.05;2.08;;;20.00;74.50;;;;;;5053643;28;20041;-62
2022/07/29 03:34:22;;;;;;;2.47;1.95;;;20.00;74.60;;;;;;5055596;28;20033;-61
2022/07/29 03:36:48;;;;;;;2.90;1.83;;;19.90;74.50;;;;;;5054485;28;20040;-62
2022/07/29 03:39:21;;;;;;;2.30;2.03;;;19.90;74.40;;;;;;5054096;28;20056;-62
2022/07/29 03:41:51;;;;;;;3.25;1.75;;;19.90;75.00;;;;;;5054941;28;20033;-62
2022/07/29 03:44:19;;;;;;;2.88;1.92;;;19.90;74.90;;;;;;5052484;28;20112;-61
2022/07/29 03:46:48;;;;;;;2.28;2.08;;;19.90;74.70;;;;;;5053797;28;20043;-62
2022/07/29 03:49:15;;;;;;;2.20;1.65;;;19.90;74.90;;;;;;5054769;28;20390;-62
2022/07/29 03:51:42;;;;;;;2.55;1.85;;;19.90;74.80;;;;;;5052247;28;20025;-61
2022/07/29 03:54:07;;;;;;;2.92;2.00;;;19.80;74.60;;;;;;5055351;28;20112;-62
2022/07/29 03:56:39;;;;;;;2.40;1.83;;;19.80;74.40;;;;;;5055605;28;20135;-63
2022/07/29 03:59:05;;;;;;;2.05;1.95;;;19.80;74.70;;;;;;5054459;28;20051;-62
2022/07/29 04:01:33;;;;;;;2.25;1.80;;;19.80;74.60;;;;;;5052898;28;20040;-66
2022/07/29 04:04:01;;;;;;;3.63;1.90;;;19.70;74.90;;;;;;5055781;28;20119;-62
2022/07/29 04:06:26;;;;;;;2.55;1.70;;;19.70;74.80;;;;;;5051316;28;20036;-62
2022/07/29 04:08:52;;;;;;;2.85;1.70;;;19.70;74.80;;;;;;5054573;28;20121;-63
2022/07/29 04:11:18;;;;;;;3.03;1.90;;;19.70;74.80;;;;;;5052932;28;20059;-62
2022/07/29 04:13:43;;;;;;;3.10;1.60;;;19.70;74.90;;;;;;5053590;28;20032;-63
2022/07/29 04:16:09;;;;;;;1.70;1.60;;;19.70;75.00;;;;;;5051059;28;20039;-62
2022/07/29 04:18:34;;;;;;;1.60;1.50;;;19.70;74.70;;;;;;5052724;28;20425;-62
2022/07/29 04:21:00;;;;;;;3.65;1.70;;;19.70;74.80;;;;;;5053456;28;20202;-63
2022/07/29 04:23:27;;;;;;;1.70;1.60;;;19.60;74.80;;;;;;5052253;28;20033;-61
2022/07/29 04:25:53;;;;;;;2.97;1.70;;;19.60;75.00;;;;;;5054146;28;20108;-61
2022/07/29 04:28:19;;;;;;;2.10;1.48;;;19.60;74.90;;;;;;5050306;28;20028;-64
2022/07/29 04:30:44;;;;;;;2.25;1.33;;;19.60;75.00;;;;;;5052514;28;20044;-64
2022/07/29 04:33:10;;;;;;;1.83;1.65;;;19.60;75.20;;;;;;5051160;28;20205;-63
2022/07/29 04:35:37;;;;;;;1.83;1.60;;;19.50;75.20;;;;;;5056034;28;20073;-62
2022/07/29 04:38:05;;;;;;;1.75;1.48;;;19.50;75.30;;;;;;5053991;28;20484;-63
2022/07/29 04:40:32;;;;;;;1.63;1.35;;;19.50;75.40;;;;;;5056190;28;20040;-62
2022/07/29 04:42:59;;;;;;;3.47;1.40;;;19.50;75.60;;;;;;5054451;28;20048;-62
2022/07/29 04:45:24;;;;;;;2.75;1.75;;;19.50;75.80;;;;;;5054963;28;20661;-63
2022/07/29 04:47:50;;;;;;;1.42;1.33;;;19.50;76.00;;;;;;5053766;28;20060;-62
2022/07/29 04:50:16;;;;;;;2.75;1.60;;;19.50;76.10;;;;;;5054898;28;20036;-61
2022/07/29 04:52:42;;;;;;;2.70;1.65;;;19.50;76.30;;;;;;5054263;28;20042;-60
2022/07/29 04:55:08;;;;;;;2.92;1.23;;;19.60;77.20;;;;;;5055048;28;20021;-61
2022/07/29 04:57:34;;;;;;;2.78;1.42;;;19.60;76.40;;;;;;5056311;28;20159;-62
2022/07/29 04:59:59;;;;;;;2.30;1.70;;;19.60;76.50;;;;;;5055159;28;20072;-65
2022/07/29 05:02:25;;;;;;;1.58;1.48;;;19.60;76.50;;;;;;5054443;28;20148;-62
2022/07/29 05:04:50;;;;;;;3.13;1.30;;;19.70;76.60;;;;;;5054747;28;20374;-61
2022/07/29 05:07:16;;;;;;;2.15;1.13;;;19.70;76.60;;;;;;5054315;28;20523;-63
2022/07/29 05:09:42;;;;;;;1.80;1.45;;;19.80;76.60;;;;;;5053426;28;20108;-62
2022/07/29 05:12:08;;;;;;;1.05;1.02;;;19.80;76.70;;;;;;5054692;28;20036;-62
2022/07/29 05:14:33;;;;;;;1.45;1.10;;;19.80;76.80;;;;;;5054179;28;20053;-63
2022/07/29 05:16:59;;;;;;;1.55;1.35;;;19.80;77.00;;;;;;5052880;28;20032;-63
2022/07/29 05:19:25;;;;;;;1.80;1.00;;;19.90;77.10;;;;;;5055681;28;20534;-63
2022/07/29 05:21:50;;;;;;;2.42;1.10;;;19.90;77.10;;;;;;5054466;28;20436;-63
2022/07/29 05:24:16;;;;;;;1.17;1.08;;;19.90;77.10;;;;;;5056018;28;20036;-62
2022/07/29 05:26:42;;;;;;;2.15;1.23;;;20.00;77.40;;;;;;5052746;28;20053;-62
2022/07/29 05:29:08;;;;;;;1.67;0.90;;;20.00;77.60;;;;;;5056221;28;20071;-62
2022/07/29 05:31:34;;;;;;;2.95;1.13;;;20.10;77.50;;;;;;5054727;28;20041;-62
2022/07/29 05:34:00;;;;;;;1.42;1.20;;;20.20;77.40;;;;;;5052794;28;20531;-61
2022/07/29 05:36:25;;;;;;;4.13;1.25;;;20.20;77.30;;;;;;5053170;28;20028;-60
2022/07/29 05:38:51;;;;;;;6.72;1.23;;;20.20;77.30;;;;;;5054547;28;20049;-62
2022/07/29 05:41:18;;;;;;;1.70;1.02;;;20.30;77.20;;;;;;5054907;28;20036;-62
2022/07/29 05:43:43;;;;;;;4.28;1.20;;;20.30;77.10;;;;;;5058143;28;20028;-62
2022/07/29 05:46:09;;;;;;;1.60;1.13;;;20.40;76.80;;;;;;5055369;28;20423;-61
2022/07/29 05:48:35;;;;;;;1.35;1.00;;;20.30;76.50;;;;;;5056857;28;20460;-62
2022/07/29 05:51:01;;;;;;;3.00;1.30;;;20.40;76.40;;;;;;5057731;28;20090;-63
2022/07/29 05:53:27;;;;;;;2.40;1.05;;;20.40;76.30;;;;;;5058381;28;20497;-61
2022/07/29 05:55:52;;;;;;;1.50;1.02;;;20.40;76.50;;;;;;5058189;28;20404;-59
2022/07/29 05:58:18;;;;;;;1.50;1.20;;;20.40;76.80;;;;;;5060203;28;20039;-61
2022/07/29 06:00:43;;;;;;;3.47;1.20;;;20.40;76.90;;;;;;5057247;28;20496;-61
2022/07/29 06:03:09;;;;;;;4.15;1.00;;;20.40;77.00;;;;;;5059634;28;20041;-60
2022/07/29 06:05:35;;;;;;;3.60;1.10;;;20.50;77.20;;;;;;5058469;28;20589;-62
2022/07/29 06:08:01;;;;;;;1.90;1.10;;;20.50;77.20;;;;;;5057738;28;20037;-60
2022/07/29 06:10:26;;;;;;;1.33;1.20;;;20.50;77.10;;;;;;5054562;28;20807;-61
2022/07/29 06:12:52;;;;;;;1.52;0.88;;;20.60;76.80;;;;;;5059588;28;20051;-61
2022/07/29 06:15:18;;;;;;;1.92;1.10;;;20.60;76.70;;;;;;5055180;28;20039;-61
2022/07/29 06:17:43;;;;;;;1.70;1.30;;;20.60;76.60;;;;;;5057367;28;20051;-62
2022/07/29 06:20:10;;;;;;;2.25;1.50;;;20.60;76.40;;;;;;5058390;28;20060;-61
2022/07/29 06:22:35;;;;;;;2.30;1.05;;;20.60;76.30;;;;;;5056951;28;20056;-61
2022/07/29 06:25:02;;;;;;;1.48;1.10;;;20.70;76.20;;;;;;5058042;28;20032;-60
2022/07/29 06:27:27;;;;;;;2.03;1.10;;;20.70;76.10;;;;;;5056031;28;20037;-60
2022/07/29 06:29:53;;;;;;;2.15;1.25;;;20.70;76.10;;;;;;5059437;28;20134;-62
2022/07/29 06:32:19;;;;;;;1.15;1.10;;;20.70;76.10;;;;;;5057620;28;20055;-61
2022/07/29 06:34:45;;;;;;;2.47;1.30;;;20.70;76.30;;;;;;5057482;28;20033;-59
2022/07/29 06:37:10;;;;;;;2.38;1.10;;;20.80;76.50;;;;;;5054625;28;20033;-59
2022/07/29 06:39:37;;;;;;;2.40;1.02;;;20.80;76.20;;;;;;5056564;28;20037;-63
2022/07/29 06:42:05;;;;;;;1.73;1.02;;;20.80;76.20;;;;;;5057510;28;20040;-62
2022/07/29 06:44:33;;;;;;;3.22;1.20;;;20.80;76.30;;;;;;5057792;28;20039;-59
2022/07/29 06:46:59;;;;;;;2.75;1.02;;;20.80;75.90;;;;;;5054734;28;20071;-59
2022/07/29 06:49:26;;;;;;;1.75;1.17;;;20.90;76.20;;;;;;5058251;28;20068;-59
2022/07/29 06:51:52;;;;;;;2.67;1.20;;;20.90;76.30;;;;;;5055813;28;20099;-60
2022/07/29 06:54:17;;;;;;;3.72;1.13;;;20.90;76.40;;;;;;5056654;28;20028;-62
2022/07/29 06:56:43;;;;;;;1.98;1.05;;;20.90;76.40;;;;;;5055639;28;20031;-62
2022/07/29 06:59:10;;;;;;;1.30;1.00;;;21.00;76.30;;;;;;5058801;28;20035;-62
2022/07/29 07:01:41;;;;;;;1.77;1.33;;;21.00;76.00;;;;;;5057106;28;20036;-61
2022/07/29 07:04:10;;;;;;;1.17;1.13;;;21.10;76.50;;;;;;5058475;28;20060;-60
2022/07/29 07:06:37;;;;;;;1.00;0.95;;;21.10;76.30;;;;;;5055207;28;20033;-60
2022/07/29 07:09:03;;;;;;;1.35;1.15;;;21.20;76.10;;;;;;5057447;28;20066;-62
2022/07/29 07:11:28;;;;;;;1.52;1.25;;;21.20;77.20;;;;;;5055301;28;20560;-62
2022/07/29 07:13:54;;;;;;;2.15;1.23;;;21.30;76.30;;;;;;5058164;28;20176;-60
2022/07/29 07:16:20;;;;;;;1.15;0.98;;;21.30;75.80;;;;;;5056301;28;20040;-62
2022/07/29 07:18:45;;;;;;;3.35;1.30;;;21.40;75.70;;;;;;5056013;28;20552;-62
2022/07/29 07:21:11;;;;;;;2.15;1.40;;;21.40;76.00;;;;;;5058084;28;20123;-62
2022/07/29 07:23:37;;;;;;;1.88;1.00;;;21.40;76.00;;;;;;5056223;28;20440;-66
2022/07/29 07:26:03;;;;;;;1.85;1.10;;;21.50;75.60;;;;;;5055563;28;20043;-63
2022/07/29 07:28:28;;;;;;;1.70;1.35;;;21.50;75.60;;;;;;5056373;28;20040;-60
2022/07/29 07:30:54;;;;;;;1.35;1.15;;;21.60;75.60;;;;;;5057139;28;20036;-60
2022/07/29 07:33:20;;;;;;;1.25;1.15;;;21.60;75.40;;;;;;5056175;28;20041;-63
2022/07/29 07:35:46;;;;;;;1.40;1.10;;;21.60;75.10;;;;;;5055970;28;20025;-61
2022/07/29 07:38:12;;;;;;;1.30;1.20;;;21.70;75.10;;;;;;5056290;28;20045;-61
2022/07/29 07:40:37;;;;;;;1.30;1.20;;;21.80;74.90;;;;;;5055733;28;20455;-62
2022/07/29 07:43:03;;;;;;;1.25;1.15;;;21.80;74.80;;;;;;5057471;28;20499;-62
2022/07/29 07:45:28;;;;;;;1.83;1.45;;;21.80;74.70;;;;;;5056072;28;20033;-61
2022/07/29 07:47:54;;;;;;;1.15;1.10;;;21.90;75.10;;;;;;5057698;28;20078;-61
2022/07/29 07:50:20;;;;;;;1.40;1.30;;;22.00;74.90;;;;;;5055817;28;20469;-63
2022/07/29 07:52:54;;;;;;;2.25;1.17;;;22.00;74.60;;;;;;5055836;28;20209;-60
2022/07/29 07:55:20;;;;;;;;;;;22.10;74.90;;;;;;5056494;28;20090;-59
2022/07/29 07:57:46;;;;;;;1.42;1.33;;;22.10;74.60;;;;;;5053681;28;19916;-63
2022/07/29 08:00:13;;;;;;;2.35;1.60;;;22.20;75.00;;;;;;5056172;28;20072;-62
2022/07/29 08:02:40;;;;;;;1.55;1.17;;;22.30;73.90;;;;;;5056799;28;20058;-60
2022/07/29 08:05:07;;;;;;;1.50;1.40;;;22.30;74.50;;;;;;5054440;28;20032;-60
2022/07/29 08:07:33;;;;;;;1.60;1.50;;;22.40;74.70;;;;;;5054924;28;20064;-62
2022/07/29 08:09:59;;;;;;;5.30;1.42;;;22.40;74.10;;;;;;5055260;28;20056;-60
2022/07/29 08:12:24;;;;;;;1.60;1.40;;;22.50;74.00;;;;;;5056259;28;20037;-63
2022/07/29 08:14:50;;;;;;;2.22;1.50;;;22.60;73.90;;;;;;5055924;28;20032;-61
2022/07/29 08:17:15;;;;;;;1.88;1.60;;;22.60;73.90;;;;;;5054704;28;20044;-61
2022/07/29 08:19:41;;;;;;;2.50;1.50;;;22.70;73.90;;;;;;5054672;28;20061;-62
2022/07/29 08:22:07;;;;;;;1.75;1.60;;;22.70;73.80;;;;;;5055276;28;20035;-62
2022/07/29 08:27:17;;;;;;;4.17;1.70;;;22.90;73.90;;;;;;5054748;28;20190;-61
2022/07/29 08:29:43;;;;;;;2.65;1.80;;;22.90;73.70;;;;;;5054793;28;20292;-61
2022/07/29 08:32:08;;;;;;;1.67;1.58;;;22.90;73.50;;;;;;5053948;28;20037;-62
2022/07/29 08:34:34;;;;;;;2.95;2.00;;;23.00;74.20;;;;;;5053714;28;20044;-61
2022/07/29 08:37:00;;;;;;;2.00;1.88;;;23.00;73.90;;;;;;5053591;28;20032;-63
2022/07/29 08:39:25;;;;;;;1.90;1.67;;;23.10;73.90;;;;;;5055675;28;20504;-63
2022/07/29 08:41:51;;;;;;;2.35;1.90;;;23.10;73.90;;;;;;5054535;28;20075;-62
2022/07/29 08:44:18;;;;;;;2.20;2.00;;;23.20;73.70;;;;;;5056874;28;20508;-62
2022/07/29 08:46:45;;;;;;;2.75;2.10;;;23.20;73.30;;;;;;5054461;28;20045;-61
2022/07/29 08:49:11;;;;;;;2.15;1.98;;;23.20;73.30;;;;;;5055787;28;20091;-62
2022/07/29 08:51:39;;;;;;;2.08;1.92;;;23.30;73.20;;;;;;5054018;28;20094;-62
2022/07/29 08:54:06;;;;;;;2.42;1.90;;;23.30;73.40;;;;;;5057235;28;20036;-63
2022/07/29 08:56:33;;;;;;;4.97;1.83;;;23.30;73.30;;;;;;5054189;28;20029;-61
2022/07/29 08:59:02;;;;;;;2.20;1.98;;;23.30;72.80;;;;;;5054919;28;20025;-62
2022/07/29 09:01:30;;;;;;;2.85;2.20;;;23.40;73.00;;;;;;5053809;28;20374;-62
2022/07/29 09:03:57;;;;;;;2.38;2.15;;;23.40;73.00;;;;;;5056746;28;20140;-61
2022/07/29 09:06:27;;;;;;;2.03;1.92;;;23.50;72.80;;;;;;5055749;28;20079;-63
2022/07/29 09:08:54;;;;;;;1.92;1.83;;;23.50;72.80;;;;;;5057668;28;20036;-62
2022/07/29 09:11:20;;;;;;;2.20;2.03;;;23.60;73.00;;;;;;5055078;28;20039;-63
2022/07/29 09:13:46;;;;;;;3.38;2.08;;;23.70;72.80;;;;;;5057349;28;20127;-63
2022/07/29 09:16:12;;;;;;;2.25;2.05;;;23.80;72.80;;;;;;5056777;28;20036;-62
2022/07/29 09:18:40;;;;;;;2.63;2.33;;;23.90;72.00;;;;;;5059168;28;20055;-61
2022/07/29 09:24:00;;;;;;;2.17;1.83;;;24.00;71.60;;;;;;5059502;28;20033;-62
2022/07/29 09:26:29;;;;;;;2.13;1.92;;;24.10;71.80;;;;;;5058655;28;20033;-60
2022/07/29 09:28:55;;;;;;;1.95;1.85;;;24.10;71.60;;;;;;5060228;28;20036;-63
2022/07/29 09:31:33;;;;;;;2.53;1.75;;;24.10;72.30;;;;;;5057983;28;20381;-63
2022/07/29 09:34:00;;;;;;;2.10;1.90;;;24.20;71.30;;;;;;5059264;28;20056;-64
2022/07/29 09:36:26;;;;;;;1.88;1.75;;;24.20;71.30;;;;;;5057286;28;20090;-62
2022/07/29 09:38:59;;;;;;;2.30;1.83;;;24.20;71.40;;;;;;5056121;28;20138;-62
2022/07/29 09:41:25;;;;;;;2.10;1.90;;;24.30;71.80;;;;;;5059270;28;20126;-61
2022/07/29 09:43:59;;;;;;;3.65;1.73;;;24.30;71.50;;;;;;5057401;28;20032;-62
2022/07/29 09:46:25;;;;;;;2.05;1.75;;;24.40;70.70;;;;;;5055840;28;20511;-63
2022/07/29 09:49:12;;;;;;;2.17;1.67;;;24.40;71.00;;;;;;5058852;28;20037;-63
2022/07/29 09:51:39;;;;;;;2.65;2.10;;;24.50;70.40;;;;;;5056969;28;20048;-60
2022/07/29 09:54:25;;;;;;;2.40;2.00;;;24.50;70.00;;;;;;5057907;28;20033;-62
2022/07/29 09:56:51;;;;;;;1.92;1.77;;;24.60;69.20;;;;;;5058199;28;20504;-62
2022/07/29 09:59:16;;;;;;;2.35;2.15;;;24.60;69.30;;;;;;5056483;28;20234;-62
2022/07/29 10:01:42;;;;;;;2.60;2.03;;;24.60;69.20;;;;;;5055369;28;20487;-62
2022/07/29 10:04:08;;;;;;;2.00;1.88;;;24.60;69.20;;;;;;5057639;28;20040;-62
2022/07/29 10:06:34;;;;;;;2.25;2.05;;;24.60;69.30;;;;;;5056357;28;20445;-62
2022/07/29 10:09:10;;;;;;;2.55;1.95;;;24.60;68.80;;;;;;5059257;28;20127;-63
2022/07/29 10:11:36;;;;;;;2.70;1.90;;;24.60;68.10;;;;;;5055151;28;21022;-63
2022/07/29 10:14:03;;;;;;;2.58;1.90;;;24.60;68.80;;;;;;5057803;28;20426;-63
2022/07/29 10:16:32;;;;;;;3.13;2.10;;;24.50;68.90;;;;;;5055232;28;20067;-62
2022/07/29 10:18:59;;;;;;;2.80;2.08;;;24.50;69.40;;;;;;5059082;28;20579;-62
2022/07/29 10:21:25;;;;;;;2.20;2.00;;;24.50;68.80;;;;;;5058328;28;20044;-63
2022/07/29 10:23:52;;;;;;;3.33;1.75;;;24.50;69.20;;;;;;5059274;28;20069;-62
2022/07/29 10:26:20;;;;;;;2.50;2.05;;;24.50;68.00;;;;;;5056627;28;20025;-63
2022/07/29 10:28:45;;;;;;;1.98;1.88;;;24.50;67.50;;;;;;5056336;28;20388;-62
2022/07/29 10:31:29;;;;;;;2.78;1.80;;;24.50;67.50;;;;;;5055071;28;20040;-61
2022/07/29 10:34:15;;;;;;;1.85;1.75;;;24.50;66.50;;;;;;5055776;28;20040;-63
2022/07/29 10:37:18;;;;;;;1.98;1.50;;;24.50;66.40;;;;;;5057586;28;20131;-62
2022/07/29 10:41:26;;;;;;;1.85;1.63;;;24.50;65.90;;;;;;5056794;28;20041;-63
2022/07/29 10:42:53;;;;;;;3.47;1.70;;;24.60;64.80;;;;;;5058284;28;20087;-63
2022/07/29 10:45:19;;;;;;;1.70;1.60;;;24.60;65.70;;;;;;5054709;28;20374;-65
2022/07/29 10:47:45;;;;;;;2.75;1.58;;;24.60;65.20;;;;;;5058349;28;20044;-62
2022/07/29 10:50:11;;;;;;;1.50;1.40;;;24.70;64.80;;;;;;5055356;28;20099;-63
2022/07/29 10:52:58;;;;;;;1.70;1.60;;;24.70;64.10;;;;;;5057958;28;20555;-62
2022/07/29 10:55:39;;;;;;;2.30;1.50;;;24.80;63.60;;;;;;5056885;28;20040;-63
2022/07/29 10:58:25;;;;;;;1.63;1.48;;;25.00;62.90;;;;;;5060299;28;20224;-63
2022/07/29 11:00:53;;;;;;;1.90;1.70;;;25.00;62.00;;;;;;5056345;28;20029;-61
2022/07/29 11:03:40;;;;;;;1.70;1.60;;;25.10;62.10;;;;;;5058805;28;20116;-61
2022/07/29 11:06:06;;;;;;;1.50;1.40;;;25.20;61.60;;;;;;5057944;28;20056;-61
2022/07/29 11:08:31;;;;;;;1.58;1.42;;;25.20;62.10;;;;;;5056810;28;20083;-61
2022/07/29 11:11:16;;;;;;;1.60;1.42;;;25.30;62.30;;;;;;5054011;28;20040;-62
2022/07/29 11:13:46;;;;;;;2.73;1.70;;;25.30;60.70;;;;;;5056524;28;20044;-63
2022/07/29 11:16:12;;;;;;;2.17;1.52;;;25.30;61.10;;;;;;5055941;28;20545;-63
2022/07/29 11:19:12;;;;;;;1.67;1.50;;;25.30;61.40;;;;;;5054103;28;20025;-61
2022/07/29 11:21:41;;;;;;;2.03;1.73;;;25.30;61.30;;;;;;5055987;28;20524;-63
2022/07/29 11:24:34;;;;;;;1.60;1.45;;;25.30;63.10;;;;;;5056184;28;20029;-62
2022/07/29 11:27:17;;;;;;;3.10;1.77;;;25.30;62.20;;;;;;5054783;28;20079;-63
2022/07/29 11:29:49;;;;;;;3.60;1.80;;;25.30;62.50;;;;;;5053665;28;20086;-63
2022/07/29 11:32:17;;;;;;;2.13;1.80;;;25.30;63.20;;;;;;5054188;28;20116;-62
2022/07/29 11:34:43;;;;;;;3.17;1.83;;;25.30;64.00;;;;;;5053812;28;20037;-62
2022/07/29 11:37:09;;;;;;;2.65;2.00;;;25.30;64.50;;;;;;5055886;28;20040;-62
2022/07/29 11:39:37;;;;;;;3.20;1.92;;;25.30;64.90;;;;;;5055003;28;20036;-62
2022/07/29 11:42:20;;;;;;;2.17;1.98;;;25.30;65.40;;;;;;5054306;28;20040;-64
2022/07/29 11:44:58;;;;;;;2.03;1.92;;;25.20;67.20;;;;;;5054620;28;20128;-63
2022/07/29 11:47:25;;;;;;;3.72;2.20;;;25.20;67.30;;;;;;5055609;28;20037;-62
2022/07/29 11:49:51;;;;;;;2.50;2.00;;;25.20;66.80;;;;;;5055349;28;20032;-62
2022/07/29 11:52:18;;;;;;;2.25;2.03;;;25.20;67.00;;;;;;5056974;28;20095;-62
2022/07/29 11:54:46;;;;;;;2.85;2.20;;;25.20;67.30;;;;;;5055636;28;20072;-63
2022/07/29 11:57:12;;;;;;;4.05;2.03;;;25.20;67.80;;;;;;5051761;28;20036;-63
2022/07/29 11:59:43;;;;;;;3.42;2.00;;;25.30;67.20;;;;;;5055487;28;20043;-65
2022/07/29 12:02:09;;;;;;;2.22;2.00;;;25.30;66.60;;;;;;5053716;28;20120;-63
2022/07/29 12:04:49;;;;;;;2.15;1.95;;;25.30;66.80;;;;;;5054935;28;20044;-60
2022/07/29 12:07:15;;;;;;;2.50;2.30;;;25.30;66.50;;;;;;5053933;28;20060;-62
2022/07/29 12:09:50;;;;;;;2.85;1.80;;;25.30;67.60;;;;;;5053742;28;20082;-62
2022/07/29 12:12:17;;;;;;;2.58;1.88;;;25.30;66.90;;;;;;5052479;28;20426;-62
2022/07/29 12:14:46;;;;;;;2.50;1.95;;;25.30;66.80;;;;;;5053870;28;20561;-62
2022/07/29 12:17:26;;;;;;;2.30;2.10;;;25.30;66.60;;;;;;5057231;28;20025;-63
2022/07/29 12:19:51;;;;;;;3.00;2.03;;;25.40;66.30;;;;;;5055504;28;20037;-61
2022/07/29 12:22:40;;;;;;;2.65;1.92;;;25.40;65.90;;;;;;5055670;28;20056;-62
2022/07/29 12:25:07;;;;;;;2.13;1.90;;;25.40;65.80;;;;;;5055629;28;20040;-63
2022/07/29 12:27:33;;;;;;;2.00;1.90;;;25.50;65.90;;;;;;5053815;28;20029;-63
2022/07/29 12:30:00;;;;;;;2.00;1.80;;;25.50;65.90;;;;;;5053510;28;20412;-62
2022/07/29 12:32:37;;;;;;;2.05;1.90;;;25.60;65.60;;;;;;5053506;28;20044;-63
2022/07/29 12:35:11;;;;;;;1.67;1.58;;;25.70;64.00;;;;;;5056200;28;20029;-61
2022/07/29 12:37:39;;;;;;;2.28;1.92;;;25.80;64.50;;;;;;5053840;28;20393;-63
2022/07/29 12:40:07;;;;;;;2.25;1.75;;;25.90;63.60;;;;;;5056285;28;20507;-64
2022/07/29 12:42:32;;;;;;;1.92;1.75;;;25.90;63.30;;;;;;5054214;28;20121;-62
2022/07/29 12:44:58;;;;;;;1.70;1.60;;;26.00;62.50;;;;;;5053776;28;20040;-61
2022/07/29 12:47:25;;;;;;;2.25;1.60;;;26.10;62.00;;;;;;5054485;28;20116;-62
2022/07/29 12:50:06;;;;;;;1.65;1.55;;;26.10;62.00;;;;;;5054960;28;20047;-62
2022/07/29 12:52:34;;;;;;;3.13;1.23;;;26.20;61.80;;;;;;5055002;28;20048;-60
2022/07/29 12:55:00;;;;;;;3.35;1.40;;;26.40;61.30;;;;;;5054759;28;20045;-62
2022/07/29 12:57:27;;;;;;;2.63;1.77;;;26.40;60.70;;;;;;5054121;28;20040;-62
2022/07/29 13:00:12;;;;;;;1.88;1.60;;;26.50;60.80;;;;;;5053989;28;20044;-63
2022/07/29 13:02:39;;;;;;;1.60;1.50;;;26.60;59.60;;;;;;5054678;28;20029;-62